createdAt,value
2023-02-15T00:01:51.124Z,47.27
2023-02-15T00:04:21.226Z,49.33
2023-02-15T00:06:50.604Z,52.60
2023-02-15T00:09:18.534Z,47.70
2023-02-15T00:11:51.108Z,46.23
2023-02-15T00:14:20.838Z,46.53
2023-02-15T00:16:49.636Z,43.97
2023-02-15T00:19:19.257Z,50.60
2023-02-15T00:21:47.680Z,50.30
2023-02-15T00:24:18.227Z,54.27
2023-02-15T00:26:47.054Z,42.67
2023-02-15T00:29:16.259Z,46.73
2023-02-15T00:31:44.367Z,48.20
2023-02-15T00:34:14.662Z,47.53
2023-02-15T00:36:42.440Z,49.10
2023-02-15T00:39:10.779Z,44.73
2023-02-15T00:41:40.446Z,51.33
2023-02-15T00:44:09.516Z,50.10
2023-02-15T00:46:37.848Z,48.43
2023-02-15T00:49:06.721Z,45.50
2023-02-15T00:51:34.779Z,52.23
2023-02-15T00:54:02.904Z,53.60
2023-02-15T00:56:30.882Z,49.07
2023-02-15T00:58:59.967Z,56.93
2023-02-15T01:01:27.791Z,48.23
2023-02-15T01:03:55.779Z,52.37
2023-02-15T01:06:23.562Z,50.90
2023-02-15T01:08:51.296Z,50.67
2023-02-15T01:11:23.140Z,50.43
2023-02-15T01:13:51.857Z,46.53
2023-02-15T01:16:21.581Z,60.50
2023-02-15T01:18:49.500Z,52.30
2023-02-15T01:21:19.918Z,53.33
2023-02-15T01:23:47.925Z,47.50
2023-02-15T01:26:16.327Z,54.73
2023-02-15T01:28:44.042Z,47.20
2023-02-15T01:31:14.024Z,49.03
2023-02-15T01:33:43.763Z,50.10
2023-02-15T01:36:11.938Z,58.23
2023-02-15T01:38:40.813Z,51.57
2023-02-15T01:41:24.855Z,50.23
2023-02-15T01:43:55.040Z,50.20
2023-02-15T01:46:26.980Z,54.00
2023-02-15T01:49:01.665Z,53.13
2023-02-15T01:51:32.207Z,55.73
2023-02-15T01:54:03.780Z,46.33
2023-02-15T01:56:35.483Z,55.37
2023-02-15T01:59:09.864Z,54.50
2023-02-15T02:01:37.924Z,53.43
2023-02-15T02:04:15.510Z,58.57
2023-02-15T02:06:43.488Z,52.57
2023-02-15T02:09:11.542Z,51.50
2023-02-15T02:11:41.181Z,50.13
2023-02-15T02:14:09.314Z,52.90
2023-02-15T02:16:44.643Z,52.87
2023-02-15T02:19:48.687Z,59.27
2023-02-15T02:22:35.775Z,43.80
2023-02-15T02:25:34.646Z,56.30
2023-02-15T02:28:16.292Z,54.90
2023-02-15T02:31:13.170Z,52.77
2023-02-15T02:33:56.151Z,57.43
2023-02-15T02:36:31.366Z,54.73
2023-02-15T02:39:12.130Z,60.67
2023-02-15T02:41:52.215Z,56.73
2023-02-15T02:44:24.391Z,57.00
2023-02-15T02:46:55.512Z,57.90
2023-02-15T02:49:36.963Z,54.37
2023-02-15T02:52:07.727Z,49.00
2023-02-15T02:54:37.569Z,57.97
2023-02-15T02:57:10.085Z,57.30
2023-02-15T02:59:42.677Z,49.27
2023-02-15T03:02:14.316Z,57.13
2023-02-15T03:04:48.427Z,63.27
2023-02-15T03:07:22.926Z,57.07
2023-02-15T03:09:53.618Z,60.43
2023-02-15T03:12:24.205Z,60.73
2023-02-15T03:14:55.521Z,60.40
2023-02-15T03:17:25.804Z,55.93
2023-02-15T03:19:59.573Z,63.80
2023-02-15T03:22:31.117Z,61.20
2023-02-15T03:25:02.730Z,60.67
2023-02-15T03:27:35.403Z,55.03
2023-02-15T03:30:05.659Z,60.93
2023-02-15T03:32:36.478Z,52.23
2023-02-15T03:35:06.358Z,55.27
2023-02-15T03:37:38.979Z,60.63
2023-02-15T03:40:31.167Z,50.90
2023-02-15T03:43:04.874Z,63.13
2023-02-15T03:45:35.087Z,57.37
2023-02-15T03:48:05.118Z,61.43
2023-02-15T03:50:55.516Z,63.07
2023-02-15T03:53:27.293Z,60.80
2023-02-15T03:55:56.958Z,58.87
2023-02-15T03:58:42.005Z,67.33
2023-02-15T04:01:32.967Z,58.43
2023-02-15T04:04:06.288Z,62.80
2023-02-15T04:06:35.712Z,54.43
2023-02-15T04:09:23.023Z,61.37
2023-02-15T04:11:50.723Z,63.83
2023-02-15T04:14:36.151Z,60.47
2023-02-15T04:17:07.295Z,59.57
2023-02-15T04:19:52.784Z,59.87
2023-02-15T04:22:39.836Z,58.07
2023-02-15T04:25:14.462Z,60.73
2023-02-15T04:27:44.073Z,59.63
2023-02-15T04:30:13.720Z,64.63
2023-02-15T04:32:41.733Z,56.83
2023-02-15T04:35:10.433Z,60.50
2023-02-15T04:37:40.178Z,63.03
2023-02-15T04:40:09.728Z,64.67
2023-02-15T04:42:37.627Z,91.57
2023-02-15T04:45:05.732Z,77.30
2023-02-15T04:47:33.586Z,78.80
2023-02-15T04:50:01.438Z,63.57
2023-02-15T04:52:29.202Z,69.33
2023-02-15T04:54:58.281Z,54.43
2023-02-15T04:57:26.039Z,54.10
2023-02-15T04:59:53.790Z,59.63
2023-02-15T05:02:21.530Z,65.10
2023-02-15T05:04:49.246Z,62.97
2023-02-15T05:07:16.946Z,67.10
2023-02-15T05:09:44.668Z,70.00
2023-02-15T05:12:13.796Z,62.90
2023-02-15T05:14:41.528Z,57.77
2023-02-15T05:17:09.270Z,61.27
2023-02-15T05:19:36.984Z,67.33
2023-02-15T05:22:04.783Z,50.10
2023-02-15T05:24:50.206Z,60.33
2023-02-15T05:27:36.886Z,59.67
2023-02-15T05:30:05.121Z,60.57
2023-02-15T05:32:33.031Z,75.00
2023-02-15T05:35:00.803Z,59.80
2023-02-15T05:37:28.504Z,72.87
2023-02-15T05:39:56.196Z,68.83
2023-02-15T05:42:25.276Z,63.60
2023-02-15T05:44:53.020Z,59.83
2023-02-15T05:47:20.725Z,58.43
2023-02-15T05:49:48.469Z,61.27
2023-02-15T05:52:16.180Z,54.83
2023-02-15T05:54:43.908Z,66.27
2023-02-15T05:57:11.675Z,57.50
2023-02-15T05:59:40.760Z,55.23
2023-02-15T06:02:08.499Z,63.47
2023-02-15T06:04:36.253Z,59.63
2023-02-15T06:07:03.989Z,55.53
2023-02-15T06:09:31.716Z,52.40
2023-02-15T06:11:59.470Z,52.13
2023-02-15T06:14:27.221Z,62.53
2023-02-15T06:16:56.330Z,53.57
2023-02-15T06:19:24.350Z,61.33
2023-02-15T06:21:52.074Z,49.93
2023-02-15T06:24:19.760Z,53.43
2023-02-15T06:26:47.555Z,56.33
2023-02-15T06:29:15.329Z,61.03
2023-02-15T06:31:43.250Z,63.00
2023-02-15T06:34:12.441Z,63.67
2023-02-15T06:36:40.199Z,64.63
2023-02-15T06:39:08.167Z,63.70
2023-02-15T06:41:35.895Z,59.93
2023-02-15T06:44:03.600Z,58.63
2023-02-15T06:46:31.370Z,56.10
2023-02-15T06:48:59.052Z,58.47
2023-02-15T06:51:28.275Z,50.03
2023-02-15T06:53:55.993Z,46.63
2023-02-15T06:56:23.683Z,56.03
2023-02-15T06:58:51.417Z,41.77
2023-02-15T07:01:19.158Z,58.43
2023-02-15T07:03:47.583Z,56.67
2023-02-15T07:06:15.421Z,52.67
2023-02-15T07:08:44.758Z,65.13
2023-02-15T07:11:29.901Z,57.10
2023-02-15T07:13:57.798Z,63.43
2023-02-15T07:16:25.727Z,66.43
2023-02-15T07:18:53.511Z,65.40
2023-02-15T07:21:21.282Z,46.13
2023-02-15T07:23:50.387Z,62.93
2023-02-15T07:26:18.116Z,47.03
2023-02-15T07:28:45.926Z,59.07
2023-02-15T07:31:13.674Z,61.03
2023-02-15T07:33:41.442Z,65.23
2023-02-15T07:36:12.442Z,65.50
2023-02-15T07:38:42.914Z,62.47
2023-02-15T07:41:14.215Z,67.33
2023-02-15T07:43:44.268Z,55.77
2023-02-15T07:46:14.103Z,63.10
2023-02-15T07:48:42.625Z,62.87
2023-02-15T07:51:12.838Z,61.83
2023-02-15T07:53:40.833Z,60.93
2023-02-15T07:56:13.520Z,60.77
2023-02-15T07:58:53.400Z,66.07
2023-02-15T08:01:23.358Z,62.33
2023-02-15T08:03:51.846Z,56.63
2023-02-15T08:06:20.022Z,65.50
2023-02-15T08:08:47.777Z,69.07
2023-02-15T08:11:30.243Z,61.73
2023-02-15T08:14:00.967Z,48.40
2023-02-15T08:16:32.242Z,59.40
2023-02-15T08:19:01.886Z,69.13
2023-02-15T08:21:31.402Z,69.53
2023-02-15T08:24:00.149Z,65.40
2023-02-15T08:26:30.743Z,60.83
2023-02-15T08:28:59.498Z,56.53
2023-02-15T08:31:28.078Z,66.17
2023-02-15T08:33:57.943Z,63.03
2023-02-15T08:36:28.078Z,57.70
2023-02-15T08:38:55.800Z,56.93
2023-02-15T08:41:25.571Z,48.50
2023-02-15T08:43:57.399Z,51.57
2023-02-15T08:46:27.981Z,41.07
2023-02-15T08:48:56.238Z,43.43
2023-02-15T08:51:26.526Z,41.40
2023-02-15T08:53:56.372Z,36.43
2023-02-15T08:56:26.853Z,39.67
2023-02-15T08:58:56.936Z,43.13
2023-02-15T09:01:26.826Z,42.90
2023-02-15T09:04:03.099Z,43.27
2023-02-15T09:06:31.109Z,43.33
2023-02-15T09:08:58.914Z,38.30
2023-02-15T09:11:28.285Z,36.90
2023-02-15T09:13:58.771Z,50.03
2023-02-15T09:16:29.575Z,44.40
2023-02-15T09:18:58.864Z,47.90
2023-02-15T09:21:27.981Z,43.77
2023-02-15T09:23:58.662Z,40.77
2023-02-15T09:26:26.781Z,42.90
2023-02-15T09:28:56.843Z,43.70
2023-02-15T09:31:27.966Z,47.13
2023-02-15T09:33:56.281Z,44.73
2023-02-15T09:36:25.852Z,43.23
2023-02-15T09:38:58.459Z,48.17
2023-02-15T09:41:57.786Z,39.37
2023-02-15T09:44:36.570Z,44.23
2023-02-15T09:47:23.511Z,37.93
2023-02-15T09:50:01.010Z,50.67
2023-02-15T09:52:41.190Z,49.87
2023-02-15T09:55:30.895Z,50.40
2023-02-15T09:58:09.945Z,45.23
2023-02-15T10:00:48.956Z,49.87
2023-02-15T10:03:35.747Z,52.33
2023-02-15T10:06:25.508Z,44.33
2023-02-15T10:09:05.321Z,41.40
2023-02-15T10:11:46.285Z,45.73
2023-02-15T10:14:40.219Z,57.33
2023-02-15T10:17:22.062Z,56.57
2023-02-15T10:20:05.706Z,59.97
2023-02-15T10:22:50.082Z,56.33
2023-02-15T10:25:34.224Z,60.47
2023-02-15T10:28:07.467Z,62.30
2023-02-15T10:30:44.698Z,46.73
2023-02-15T10:33:23.454Z,39.93
2023-02-15T10:35:57.525Z,65.07
2023-02-15T10:38:35.705Z,58.93
2023-02-15T10:41:15.353Z,55.57
2023-02-15T10:43:53.488Z,63.57
2023-02-15T10:46:37.995Z,68.37
2023-02-15T10:49:28.168Z,50.13
2023-02-15T10:52:15.798Z,63.17
2023-02-15T10:54:50.894Z,59.50
2023-02-15T10:57:25.866Z,62.27
2023-02-15T11:00:05.223Z,69.23
2023-02-15T11:02:47.743Z,58.73
2023-02-15T11:05:36.422Z,63.97
2023-02-15T11:08:10.439Z,78.13
2023-02-15T11:10:41.617Z,72.37
2023-02-15T11:13:13.786Z,76.90
2023-02-15T11:15:46.867Z,70.70
2023-02-15T11:18:21.123Z,73.87
2023-02-15T11:20:56.643Z,70.20
2023-02-15T11:23:28.379Z,74.60
2023-02-15T11:25:59.873Z,77.63
2023-02-15T11:28:33.856Z,70.83
2023-02-15T11:31:13.356Z,71.23
2023-02-15T11:33:46.555Z,78.73
2023-02-15T11:36:18.206Z,68.83
2023-02-15T11:38:50.588Z,79.83
2023-02-15T11:41:24.886Z,76.20
2023-02-15T11:43:58.937Z,65.33
2023-02-15T11:46:26.988Z,72.43
2023-02-15T11:48:54.826Z,70.83
2023-02-15T11:51:24.602Z,74.37
2023-02-15T11:53:54.081Z,68.87
2023-02-15T11:56:24.328Z,67.03
2023-02-15T11:58:57.815Z,77.27
2023-02-15T12:01:32.808Z,72.23
2023-02-15T12:04:06.159Z,74.27
2023-02-15T12:06:36.200Z,76.37
2023-02-15T12:09:15.273Z,72.97
2023-02-15T12:11:43.689Z,72.50
2023-02-15T12:14:16.709Z,65.70
2023-02-15T12:16:49.110Z,71.33
2023-02-15T12:19:38.985Z,71.47
2023-02-15T12:22:10.193Z,83.93
2023-02-15T12:24:47.691Z,82.73
2023-02-15T12:27:18.633Z,71.83
2023-02-15T12:29:51.117Z,75.73
2023-02-15T12:32:21.807Z,83.27
2023-02-15T12:34:51.187Z,72.47
2023-02-15T12:37:21.801Z,75.80
2023-02-15T12:39:56.637Z,73.73
2023-02-15T12:42:25.417Z,69.57
2023-02-15T12:44:59.559Z,79.47
2023-02-15T12:47:29.624Z,73.13
2023-02-15T12:50:21.620Z,65.90
2023-02-15T12:52:51.682Z,76.13
2023-02-15T12:55:27.448Z,65.57
2023-02-15T12:58:08.889Z,67.53
2023-02-15T13:00:36.753Z,68.83
2023-02-15T13:03:05.692Z,67.80
2023-02-15T13:05:38.038Z,70.03
2023-02-15T13:08:13.354Z,66.67
2023-02-15T13:10:54.032Z,63.70
2023-02-15T13:13:24.557Z,66.40
2023-02-15T13:15:54.172Z,65.23
2023-02-15T13:18:35.164Z,69.00
2023-02-15T13:21:08.483Z,71.27
2023-02-15T13:23:36.543Z,65.07
2023-02-15T13:26:11.591Z,65.73
2023-02-15T13:28:42.618Z,59.37
2023-02-15T13:31:16.165Z,72.13
2023-02-15T13:33:48.760Z,61.37
2023-02-15T13:36:25.724Z,64.23
2023-02-15T13:39:11.738Z,73.40
2023-02-15T13:41:53.198Z,67.70
2023-02-15T13:44:30.138Z,70.93
2023-02-15T13:47:16.120Z,66.90
2023-02-15T13:49:56.788Z,67.77
2023-02-15T13:52:26.492Z,62.33
2023-02-15T13:55:31.614Z,68.57
2023-02-15T13:58:24.734Z,74.30
2023-02-15T14:01:02.167Z,65.27
2023-02-15T14:03:50.895Z,73.80
2023-02-15T14:06:36.630Z,67.57
2023-02-15T14:09:17.292Z,77.73
2023-02-15T14:11:52.842Z,67.37
2023-02-15T14:14:41.022Z,61.33
2023-02-15T14:17:17.096Z,65.37
2023-02-15T14:19:51.036Z,69.53
2023-02-15T14:22:28.167Z,60.30
2023-02-15T14:25:11.471Z,54.90
2023-02-15T14:27:53.173Z,48.40
2023-02-15T14:30:25.636Z,51.60
2023-02-15T14:32:56.782Z,53.13
2023-02-15T14:35:29.131Z,55.37
2023-02-15T14:38:06.125Z,54.67
2023-02-15T14:40:59.910Z,51.37
2023-02-15T14:43:37.761Z,48.03
2023-02-15T14:46:18.756Z,43.77
2023-02-15T14:48:50.302Z,47.63
2023-02-15T14:51:59.824Z,50.00
2023-02-15T14:54:57.232Z,48.87
2023-02-15T14:57:36.771Z,44.33
2023-02-15T15:00:41.181Z,39.50
2023-02-15T15:03:25.499Z,48.87
2023-02-15T15:05:56.006Z,51.73
2023-02-15T15:08:30.500Z,56.00
2023-02-15T15:10:58.264Z,47.10
2023-02-15T15:13:53.500Z,51.33
2023-02-15T15:16:51.709Z,46.13
2023-02-15T15:20:05.193Z,52.27
2023-02-15T15:22:36.471Z,52.77
2023-02-15T15:25:05.772Z,49.73
2023-02-15T15:27:54.903Z,49.03
2023-02-15T15:30:49.005Z,45.73
2023-02-15T15:33:41.822Z,49.63
2023-02-15T15:36:36.099Z,55.53
2023-02-15T15:39:21.456Z,55.20
2023-02-15T15:41:57.984Z,55.93
2023-02-15T15:45:05.349Z,50.87
2023-02-15T15:48:07.355Z,58.70
2023-02-15T15:50:36.151Z,60.53
2023-02-15T15:53:05.266Z,46.17
2023-02-15T15:55:36.530Z,60.60
2023-02-15T15:58:08.045Z,57.43
2023-02-15T16:00:40.205Z,54.77
2023-02-15T16:03:07.958Z,51.87
2023-02-15T16:05:39.842Z,57.57
2023-02-15T16:08:08.067Z,60.67
2023-02-15T16:10:38.956Z,55.87
2023-02-15T16:13:08.425Z,53.30
2023-02-15T16:15:45.323Z,46.37
2023-02-15T16:18:17.699Z,47.47
2023-02-15T16:20:52.943Z,57.57
2023-02-15T16:23:39.219Z,54.87
2023-02-15T16:26:16.750Z,61.20
2023-02-15T16:28:51.075Z,54.93
2023-02-15T16:31:19.378Z,51.30
2023-02-15T16:33:48.210Z,45.70
2023-02-15T16:36:23.638Z,51.57
2023-02-15T16:39:10.862Z,63.07
2023-02-15T16:41:40.423Z,54.73
2023-02-15T16:44:14.055Z,57.27
2023-02-15T16:46:45.842Z,49.90
2023-02-15T16:49:19.319Z,54.10
2023-02-15T16:51:55.647Z,54.27
2023-02-15T16:54:25.027Z,58.23
2023-02-15T16:56:54.457Z,55.60
2023-02-15T16:59:34.712Z,54.20
2023-02-15T17:02:06.308Z,55.70
2023-02-15T17:04:35.547Z,55.23
2023-02-15T17:07:06.754Z,54.33
2023-02-15T17:09:35.920Z,59.23
2023-02-15T17:12:12.054Z,59.43
2023-02-15T17:14:41.741Z,65.50
2023-02-15T17:17:14.544Z,60.77
2023-02-15T17:19:50.814Z,62.50
2023-02-15T17:22:22.419Z,55.33
2023-02-15T17:24:52.280Z,66.87
2023-02-15T17:27:25.840Z,61.57
2023-02-15T17:29:57.593Z,60.37
2023-02-15T17:32:28.001Z,63.40
2023-02-15T17:35:11.132Z,67.03
2023-02-15T17:37:47.310Z,69.67
2023-02-15T17:40:24.956Z,66.60
2023-02-15T17:42:54.785Z,62.30
2023-02-15T17:45:23.702Z,65.73
2023-02-15T17:47:52.097Z,60.47
2023-02-15T17:50:23.755Z,68.97
2023-02-15T17:52:52.661Z,62.27
2023-02-15T17:55:39.162Z,75.97
2023-02-15T17:58:11.260Z,63.83
2023-02-15T18:01:00.570Z,65.73
2023-02-15T18:03:57.754Z,95.50
2023-02-15T18:06:43.579Z,69.17
2023-02-15T18:09:30.323Z,90.77
2023-02-15T18:11:58.453Z,81.37
2023-02-15T18:14:27.670Z,93.93
2023-02-15T18:16:56.317Z,71.47
2023-02-15T18:19:27.069Z,69.93
2023-02-15T18:21:57.618Z,75.23
2023-02-15T18:24:27.732Z,82.93
2023-02-15T18:26:56.153Z,89.50
2023-02-15T18:29:23.886Z,62.80
2023-02-15T18:31:56.924Z,85.83
2023-02-15T18:34:28.490Z,72.43
2023-02-15T18:36:57.649Z,83.33
2023-02-15T18:39:30.754Z,69.77
2023-02-15T18:41:58.906Z,78.77
2023-02-15T18:44:27.279Z,99.83
2023-02-15T18:46:56.365Z,65.60
2023-02-15T18:49:24.388Z,91.83
2023-02-15T18:51:53.604Z,104.87
2023-02-15T18:54:24.153Z,89.40
2023-02-15T18:56:56.097Z,103.10
2023-02-15T18:59:24.932Z,75.53
2023-02-15T19:01:53.065Z,74.33
2023-02-15T19:04:24.217Z,86.87
2023-02-15T19:06:53.472Z,73.23
2023-02-15T19:09:23.605Z,147.20
2023-02-15T19:11:54.440Z,78.27
2023-02-15T19:14:27.163Z,72.07
2023-02-15T19:16:55.507Z,105.20
2023-02-15T19:19:25.265Z,96.80
2023-02-15T19:21:53.446Z,118.37
2023-02-15T19:24:25.204Z,115.77
2023-02-15T19:26:53.445Z,68.67
2023-02-15T19:29:26.928Z,154.50
2023-02-15T19:31:55.046Z,62.17
2023-02-15T19:34:24.213Z,86.57
2023-02-15T19:36:56.557Z,90.50
2023-02-15T19:39:27.201Z,110.80
2023-02-15T19:41:55.050Z,86.90
2023-02-15T19:44:23.169Z,103.17
2023-02-15T19:46:51.465Z,71.10
2023-02-15T19:49:19.437Z,80.17
2023-02-15T19:51:48.746Z,86.23
2023-02-15T19:54:29.531Z,89.37
2023-02-15T19:56:57.469Z,122.60
2023-02-15T19:59:27.089Z,98.83
2023-02-15T20:01:55.290Z,97.33
2023-02-15T20:04:23.223Z,68.63
2023-02-15T20:06:55.170Z,81.93
2023-02-15T20:09:25.595Z,77.70
2023-02-15T20:11:54.156Z,104.33
2023-02-15T20:14:22.793Z,75.27
2023-02-15T20:16:51.406Z,106.60
2023-02-15T20:19:19.109Z,122.20
2023-02-15T20:21:51.735Z,117.53
2023-02-15T20:24:23.500Z,82.70
2023-02-15T20:26:51.252Z,72.70
2023-02-15T20:29:20.060Z,100.43
2023-02-15T20:31:47.914Z,87.90
2023-02-15T20:34:15.736Z,79.90
2023-02-15T20:36:43.448Z,120.20
2023-02-15T20:39:16.572Z,93.63
2023-02-15T20:41:48.258Z,70.40
2023-02-15T20:44:20.482Z,94.67
2023-02-15T20:46:50.289Z,69.97
2023-02-15T20:49:18.107Z,122.67
2023-02-15T20:51:47.415Z,98.33
2023-02-15T20:54:17.791Z,129.93
2023-02-15T20:56:47.749Z,89.57
2023-02-15T20:59:23.130Z,75.67
2023-02-15T21:01:52.836Z,73.50
2023-02-15T21:04:25.833Z,119.93
2023-02-15T21:06:53.647Z,87.37
2023-02-15T21:09:21.466Z,72.87
2023-02-15T21:11:53.196Z,124.93
2023-02-15T21:14:22.685Z,103.20
2023-02-15T21:16:53.373Z,101.43
2023-02-15T21:19:22.857Z,70.83
2023-02-15T21:21:53.328Z,81.17
2023-02-15T21:24:24.195Z,77.87
2023-02-15T21:26:54.320Z,74.13
2023-02-15T21:29:23.955Z,75.57
2023-02-15T21:31:51.859Z,88.87
2023-02-15T21:34:21.796Z,80.80
2023-02-15T21:36:51.068Z,78.90
2023-02-15T21:39:21.836Z,136.33
2023-02-15T21:42:09.188Z,78.53
2023-02-15T21:45:04.278Z,117.40
2023-02-15T21:47:50.241Z,111.67
2023-02-15T21:50:33.527Z,93.20
2023-02-15T21:53:04.187Z,75.20
2023-02-15T21:55:34.587Z,73.40
2023-02-15T21:58:03.034Z,71.27
2023-02-15T22:00:35.220Z,68.97
2023-02-15T22:03:05.089Z,71.93
2023-02-15T22:05:35.001Z,48.63
2023-02-15T22:08:02.726Z,67.33
2023-02-15T22:10:32.597Z,117.93
2023-02-15T22:13:01.585Z,69.17
2023-02-15T22:15:35.642Z,56.03
2023-02-15T22:18:03.570Z,72.17
2023-02-15T22:20:31.355Z,67.70
2023-02-15T22:22:59.117Z,78.50
2023-02-15T22:25:27.734Z,64.67
2023-02-15T22:27:56.540Z,75.83
2023-02-15T22:30:27.781Z,82.10
2023-02-15T22:32:58.318Z,63.17
2023-02-15T22:35:27.793Z,71.83
2023-02-15T22:37:56.158Z,68.83
2023-02-15T22:40:28.869Z,54.53
2023-02-15T22:42:58.008Z,88.17
2023-02-15T22:45:28.051Z,64.40
2023-02-15T22:47:59.970Z,78.27
2023-02-15T22:50:30.922Z,53.90
2023-02-15T22:53:00.858Z,57.33
2023-02-15T22:55:33.231Z,66.30
2023-02-15T22:58:01.617Z,57.30
2023-02-15T23:00:32.453Z,64.87
2023-02-15T23:03:02.412Z,63.27
2023-02-15T23:05:31.883Z,80.53
2023-02-15T23:07:59.658Z,89.80
2023-02-15T23:10:29.887Z,49.03
2023-02-15T23:13:16.729Z,68.50
2023-02-15T23:15:48.727Z,105.33
2023-02-15T23:18:21.199Z,95.97
2023-02-15T23:20:51.960Z,62.00
2023-02-15T23:23:25.434Z,67.97
2023-02-15T23:25:53.153Z,69.17
2023-02-15T23:28:25.040Z,54.50
2023-02-15T23:30:53.037Z,54.03
2023-02-15T23:33:24.811Z,51.63
2023-02-15T23:35:52.626Z,55.10
2023-02-15T23:38:23.212Z,55.83
2023-02-15T23:41:11.781Z,56.27
2023-02-15T23:43:42.019Z,55.10
2023-02-15T23:46:09.850Z,59.73
2023-02-15T23:48:40.329Z,51.20
2023-02-15T23:51:08.117Z,71.63
2023-02-15T23:53:35.834Z,91.83
2023-02-15T23:56:03.814Z,61.10
2023-02-15T23:58:37.213Z,58.63
